createdAt,value
2022-12-17T00:01:09.755Z,99327.38
2022-12-17T00:03:56.983Z,99325.16
2022-12-17T00:06:42.925Z,99333.44
2022-12-17T00:09:28.913Z,99326.09
2022-12-17T00:12:14.890Z,99329.66
2022-12-17T00:15:00.807Z,99333.41
2022-12-17T00:17:46.896Z,99337.63
2022-12-17T00:20:33.487Z,99324.94
2022-12-17T00:23:21.023Z,99315.87
2022-12-17T00:26:13.998Z,99313.94
2022-12-17T00:29:00.504Z,99313.91
2022-12-17T00:31:48.950Z,99303.75
2022-12-17T00:34:34.698Z,99304.41
2022-12-17T00:37:21.195Z,99294.22
2022-12-17T00:40:07.038Z,99294.31
2022-12-17T00:42:53.144Z,99295.56
2022-12-17T00:45:42.163Z,99291.97
2022-12-17T00:48:28.279Z,99306.69
2022-12-17T00:51:14.257Z,99302.50
2022-12-17T00:54:00.626Z,99298.22
2022-12-17T00:56:46.555Z,99307.00
2022-12-17T00:59:32.576Z,99319.62
2022-12-17T01:02:18.975Z,99328.41
2022-12-17T01:05:05.403Z,99355.44
2022-12-17T01:07:51.465Z,99364.28
2022-12-17T01:10:38.055Z,99368.72
2022-12-17T01:13:24.049Z,99380.84
2022-12-17T01:16:10.250Z,99389.66
2022-12-17T01:18:57.016Z,99397.06
2022-12-17T01:21:42.918Z,99399.94
2022-12-17T01:24:28.984Z,99407.44
2022-12-17T01:27:15.103Z,99422.19
2022-12-17T01:30:01.119Z,99425.62
2022-12-17T01:32:47.171Z,99421.69
2022-12-17T01:35:33.227Z,99427.81
2022-12-17T01:38:19.283Z,99439.56
2022-12-17T01:41:10.854Z,99440.44
2022-12-17T01:43:57.746Z,99437.16
2022-12-17T01:46:44.977Z,99427.84
2022-12-17T01:49:31.769Z,99430.22
2022-12-17T01:52:18.784Z,99433.22
2022-12-17T01:55:05.508Z,99432.81
2022-12-17T01:57:51.462Z,99439.06
2022-12-17T02:00:38.635Z,99436.06
2022-12-17T02:03:32.619Z,99440.31
2022-12-17T02:06:43.815Z,99422.75
2022-12-17T02:09:55.068Z,99430.19
2022-12-17T02:12:47.986Z,99425.69
2022-12-17T02:16:03.344Z,99429.56
2022-12-17T02:18:56.099Z,99424.03
2022-12-17T02:21:43.612Z,99432.56
2022-12-17T02:24:44.504Z,99424.69
2022-12-17T02:27:32.376Z,99414.03
2022-12-17T02:30:23.534Z,99410.59
2022-12-17T02:33:10.304Z,99406.09
2022-12-17T02:36:13.287Z,99398.59
2022-12-17T02:38:59.311Z,99402.25
2022-12-17T02:42:06.455Z,99418.50
2022-12-17T02:44:53.780Z,99424.09
2022-12-17T02:47:40.999Z,99430.75
2022-12-17T02:50:27.434Z,99440.16
2022-12-17T02:53:14.259Z,99438.66
2022-12-17T02:56:01.676Z,99441.31
2022-12-17T02:58:49.875Z,99451.09
2022-12-17T03:01:36.315Z,99464.53
2022-12-17T03:04:23.463Z,99472.53
2022-12-17T03:07:09.568Z,99481.34
2022-12-17T03:09:56.447Z,99489.38
2022-12-17T03:12:42.930Z,99486.59
2022-12-17T03:15:28.847Z,99484.63
2022-12-17T03:18:15.062Z,99489.22
2022-12-17T03:21:01.071Z,99478.97
2022-12-17T03:23:46.935Z,99483.81
2022-12-17T03:26:33.591Z,99491.16
2022-12-17T03:29:19.513Z,99491.97
2022-12-17T03:32:05.503Z,99488.28
2022-12-17T03:34:51.471Z,99494.44
2022-12-17T03:37:37.378Z,99492.66
2022-12-17T03:40:23.924Z,99489.09
2022-12-17T03:43:09.842Z,99485.13
2022-12-17T03:45:55.871Z,99493.19
2022-12-17T03:48:42.300Z,99476.41
2022-12-17T03:51:28.235Z,99504.38
2022-12-17T03:54:14.179Z,99502.84
2022-12-17T03:57:00.190Z,99494.31
2022-12-17T03:59:46.177Z,99490.87
2022-12-17T04:02:32.353Z,99494.97
2022-12-17T04:05:20.488Z,99496.94
2022-12-17T04:08:06.838Z,99503.22
2022-12-17T04:10:53.238Z,99498.37
2022-12-17T04:13:41.324Z,99504.84
2022-12-17T04:16:27.880Z,99500.41
2022-12-17T04:19:13.959Z,99503.81
2022-12-17T04:22:00.286Z,99509.78
2022-12-17T04:24:46.503Z,99503.69
2022-12-17T04:27:32.703Z,99498.84
2022-12-17T04:30:18.785Z,99497.84
2022-12-17T04:33:04.707Z,99506.16
2022-12-17T04:35:50.832Z,99517.69
2022-12-17T04:38:36.856Z,99540.75
2022-12-17T04:41:23.199Z,99547.81
2022-12-17T04:44:09.123Z,99541.38
2022-12-17T04:46:54.959Z,99544.72
2022-12-17T04:49:41.407Z,99548.44
2022-12-17T04:52:27.386Z,99536.06
2022-12-17T04:55:13.359Z,99525.91
2022-12-17T04:57:59.446Z,99538.53
2022-12-17T05:00:45.433Z,99551.00
2022-12-17T05:03:33.574Z,99546.13
2022-12-17T05:06:20.714Z,99536.94
2022-12-17T05:09:06.627Z,99539.94
2022-12-17T05:11:52.897Z,99564.63
2022-12-17T05:14:38.990Z,99579.88
2022-12-17T05:17:25.126Z,99585.34
2022-12-17T05:20:11.205Z,99597.56
2022-12-17T05:22:57.259Z,99594.19
2022-12-17T05:25:43.122Z,99587.63
2022-12-17T05:28:29.163Z,99593.34
2022-12-17T05:31:15.264Z,99587.34
2022-12-17T05:34:01.367Z,99598.75
2022-12-17T05:36:47.382Z,99612.97
2022-12-17T05:39:33.953Z,99624.06
2022-12-17T05:42:19.811Z,99638.00
2022-12-17T05:45:05.896Z,99632.53
2022-12-17T05:47:51.824Z,99648.50
2022-12-17T05:50:37.790Z,99663.88
2022-12-17T05:53:24.543Z,99665.06
2022-12-17T05:56:11.351Z,99659.94
2022-12-17T05:58:58.014Z,99658.09
2022-12-17T06:01:44.142Z,99667.56
2022-12-17T06:04:30.414Z,99670.78
2022-12-17T06:07:16.330Z,99678.41
2022-12-17T06:10:02.387Z,99674.81
2022-12-17T06:12:48.420Z,99676.66
2022-12-17T06:15:34.520Z,99677.31
2022-12-17T06:18:20.535Z,99667.25
2022-12-17T06:21:07.210Z,99673.13
2022-12-17T06:23:53.267Z,99689.03
2022-12-17T06:26:39.766Z,99690.88
2022-12-17T06:29:25.818Z,99701.56
2022-12-17T06:32:11.928Z,99706.69
2022-12-17T06:34:57.916Z,99709.34
2022-12-17T06:37:44.341Z,99728.44
2022-12-17T06:40:30.434Z,99726.13
2022-12-17T06:43:16.586Z,99720.03
2022-12-17T06:46:02.852Z,99727.22
2022-12-17T06:48:48.866Z,99734.94
2022-12-17T06:51:34.715Z,99739.66
2022-12-17T06:54:20.680Z,99748.81
2022-12-17T06:57:06.681Z,99747.59
2022-12-17T06:59:52.708Z,99752.03
2022-12-17T07:02:38.788Z,99746.38
2022-12-17T07:05:25.035Z,99760.72
2022-12-17T07:08:18.181Z,99752.75
2022-12-17T07:11:04.521Z,99754.06
2022-12-17T07:13:50.331Z,99752.50
2022-12-17T07:16:36.797Z,99756.94
2022-12-17T07:19:27.044Z,99761.09
2022-12-17T07:22:14.904Z,99770.75
2022-12-17T07:25:00.744Z,99756.28
2022-12-17T07:27:46.903Z,99769.66
2022-12-17T07:30:49.208Z,99772.66
2022-12-17T07:33:38.985Z,99767.69
2022-12-17T07:36:25.167Z,99778.66
2022-12-17T07:39:11.764Z,99778.22
2022-12-17T07:41:57.658Z,99788.06
2022-12-17T07:44:43.596Z,99790.69
2022-12-17T07:47:29.708Z,99796.41
2022-12-17T07:50:15.650Z,99803.91
2022-12-17T07:53:01.619Z,99797.31
2022-12-17T07:55:47.685Z,99815.31
2022-12-17T07:58:33.640Z,99799.19
2022-12-17T08:01:20.627Z,99795.06
2022-12-17T08:04:07.101Z,99811.06
2022-12-17T08:06:58.401Z,99813.91
2022-12-17T08:09:46.996Z,99818.69
2022-12-17T08:12:34.074Z,99828.56
2022-12-17T08:15:40.239Z,99835.66
2022-12-17T08:18:27.016Z,99844.94
2022-12-17T08:21:13.495Z,99846.16
2022-12-17T08:23:59.261Z,99862.75
2022-12-17T08:26:48.190Z,99861.28
2022-12-17T08:29:34.193Z,99884.31
2022-12-17T08:32:20.323Z,99864.47
2022-12-17T08:35:06.339Z,99890.22
2022-12-17T08:37:52.584Z,99883.84
2022-12-17T08:40:38.737Z,99883.66
2022-12-17T08:43:24.983Z,99893.97
2022-12-17T08:46:11.472Z,99893.72
2022-12-17T08:48:57.949Z,99882.97
2022-12-17T08:51:44.422Z,99906.41
2022-12-17T08:54:30.248Z,99893.03
2022-12-17T08:57:26.985Z,99913.91
2022-12-17T09:00:17.175Z,99907.63
2022-12-17T09:03:03.437Z,99920.34
2022-12-17T09:05:49.918Z,99917.13
2022-12-17T09:08:35.848Z,99924.25
2022-12-17T09:11:21.861Z,99934.63
2022-12-17T09:14:07.831Z,99931.19
2022-12-17T09:16:54.367Z,99930.81
2022-12-17T09:19:40.268Z,99928.53
2022-12-17T09:22:26.396Z,99927.69
2022-12-17T09:25:12.382Z,99935.97
2022-12-17T09:27:58.982Z,99944.69
2022-12-17T09:30:44.924Z,99944.56
2022-12-17T09:33:35.771Z,99946.94
2022-12-17T09:36:25.208Z,99933.37
2022-12-17T09:39:11.242Z,99932.28
2022-12-17T09:42:29.516Z,99925.47
2022-12-17T09:45:35.010Z,99939.84
2022-12-17T09:48:58.539Z,99941.13
2022-12-17T09:51:46.521Z,99945.91
2022-12-17T09:55:01.659Z,99953.00
2022-12-17T09:57:53.999Z,99959.09
2022-12-17T10:01:01.074Z,99949.47
2022-12-17T10:03:48.329Z,99960.94
2022-12-17T10:06:43.239Z,99970.34
2022-12-17T10:09:33.043Z,99961.66
2022-12-17T10:12:27.564Z,99963.75
2022-12-17T10:15:13.712Z,99976.44
2022-12-17T10:18:00.076Z,99979.91
2022-12-17T10:20:52.718Z,99987.59
2022-12-17T10:23:52.168Z,100011.56
2022-12-17T10:26:50.057Z,99989.06
2022-12-17T10:29:47.423Z,99998.91
2022-12-17T10:32:34.691Z,99998.03
2022-12-17T10:35:42.417Z,99997.72
2022-12-17T10:38:39.133Z,100004.91
2022-12-17T10:41:49.863Z,100014.31
2022-12-17T10:44:43.952Z,100033.09
2022-12-17T10:47:32.000Z,100038.00
2022-12-17T10:50:20.386Z,100040.69
2022-12-17T10:53:06.848Z,100043.09
2022-12-17T10:55:53.889Z,100051.44
2022-12-17T10:58:39.870Z,100057.47
2022-12-17T11:01:29.825Z,100063.41
2022-12-17T11:04:17.423Z,100058.09
2022-12-17T11:07:08.543Z,100077.44
2022-12-17T11:10:09.184Z,100094.16
2022-12-17T11:13:03.111Z,100096.25
2022-12-17T11:16:01.531Z,100096.78
2022-12-17T11:19:25.882Z,100095.09
2022-12-17T11:22:15.288Z,100099.16
2022-12-17T11:25:08.185Z,100093.72
2022-12-17T11:28:00.302Z,100095.09
2022-12-17T11:30:47.168Z,100098.47
2022-12-17T11:33:40.775Z,100104.31
2022-12-17T11:36:44.108Z,100114.03
2022-12-17T11:39:34.850Z,100109.41
2022-12-17T11:42:30.537Z,100121.56
2022-12-17T11:45:24.654Z,100132.28
2022-12-17T11:48:20.214Z,100129.44
2022-12-17T11:51:21.495Z,100140.94
2022-12-17T11:54:16.900Z,100134.75
2022-12-17T11:57:06.839Z,100144.19
2022-12-17T12:00:45.610Z,100145.66
2022-12-17T12:03:53.769Z,100142.03
2022-12-17T12:07:06.459Z,100160.16
2022-12-17T12:10:03.674Z,100169.03
2022-12-17T12:12:58.755Z,100192.97
2022-12-17T12:15:50.495Z,100199.84
2022-12-17T12:19:07.335Z,100197.03
2022-12-17T12:21:58.876Z,100206.03
2022-12-17T12:25:02.202Z,100215.66
2022-12-17T12:28:31.808Z,100233.19
2022-12-17T12:31:48.371Z,100229.91
2022-12-17T12:34:42.344Z,100228.59
2022-12-17T12:37:33.576Z,100227.78
2022-12-17T12:40:29.918Z,100222.22
2022-12-17T12:43:23.096Z,100238.91
2022-12-17T12:46:18.732Z,100250.53
2022-12-17T12:49:53.128Z,100244.91
2022-12-17T12:52:41.791Z,100240.44
2022-12-17T12:55:27.744Z,100244.66
2022-12-17T12:58:17.693Z,100245.41
2022-12-17T13:01:06.958Z,100239.66
2022-12-17T13:03:59.363Z,100255.84
2022-12-17T13:06:54.289Z,100255.75
2022-12-17T13:09:34.789Z,100277.22
2022-12-17T13:12:02.692Z,100287.56
2022-12-17T13:14:55.029Z,100296.00
2022-12-17T13:17:34.675Z,100279.50
2022-12-17T13:20:25.088Z,100285.53
2022-12-17T13:23:09.822Z,100284.94
2022-12-17T13:25:37.589Z,100289.84
2022-12-17T13:28:05.737Z,100286.31
2022-12-17T13:30:38.366Z,100293.84
2022-12-17T13:33:34.656Z,100295.75
2022-12-17T13:36:05.035Z,100310.19
2022-12-17T13:38:55.630Z,100309.91
2022-12-17T13:41:29.675Z,100308.56
2022-12-17T13:43:59.676Z,100316.66
2022-12-17T13:46:47.405Z,100313.00
2022-12-17T13:49:27.070Z,100312.88
2022-12-17T13:52:16.855Z,100312.13
2022-12-17T13:54:44.842Z,100330.97
2022-12-17T13:57:20.880Z,100330.91
2022-12-17T13:59:56.913Z,100337.88
2022-12-17T14:02:36.374Z,100350.00
2022-12-17T14:05:23.700Z,100349.03
2022-12-17T14:07:51.492Z,100354.12
2022-12-17T14:10:19.462Z,100349.41
2022-12-17T14:12:47.403Z,100358.63
2022-12-17T14:15:24.395Z,100364.81
2022-12-17T14:17:52.899Z,100375.13
2022-12-17T14:20:29.827Z,100368.12
2022-12-17T14:23:05.277Z,100369.66
2022-12-17T14:25:36.271Z,100365.31
2022-12-17T14:28:07.121Z,100375.66
2022-12-17T14:31:17.368Z,100386.06
2022-12-17T14:33:31.832Z,100395.69
2022-12-17T14:36:05.828Z,100396.81
2022-12-17T14:38:42.951Z,100408.25
2022-12-17T14:41:37.752Z,100402.59
2022-12-17T14:44:06.291Z,100409.50
2022-12-17T14:46:34.710Z,100424.81
2022-12-17T14:49:04.896Z,100438.47
2022-12-17T14:51:36.468Z,100432.59
2022-12-17T14:54:29.197Z,100448.31
2022-12-17T14:56:58.617Z,100460.16
2022-12-17T14:59:34.676Z,100459.34
2022-12-17T15:02:28.319Z,100459.50
2022-12-17T15:04:57.180Z,100464.81
2022-12-17T15:07:27.110Z,100476.12
2022-12-17T15:09:55.276Z,100480.66
2022-12-17T15:12:24.411Z,100478.84
2022-12-17T15:14:52.310Z,100483.19
2022-12-17T15:17:19.688Z,100481.88
2022-12-17T15:19:51.329Z,100470.72
2022-12-17T15:22:23.351Z,100474.44
2022-12-17T15:24:50.734Z,100466.69
2022-12-17T15:27:18.043Z,100469.69
2022-12-17T15:29:46.044Z,100485.38
2022-12-17T15:32:24.032Z,100489.06
2022-12-17T15:34:51.652Z,100490.94
2022-12-17T15:37:25.355Z,100486.12
2022-12-17T15:39:56.406Z,100499.56
2022-12-17T15:42:42.499Z,100487.72
2022-12-17T15:45:10.239Z,100490.22
2022-12-17T15:47:38.287Z,100504.44
2022-12-17T15:50:06.079Z,100505.34
2022-12-17T15:52:33.677Z,100509.94
2022-12-17T15:55:01.007Z,100514.47
2022-12-17T15:57:28.327Z,100517.72
2022-12-17T15:59:55.946Z,100507.69
2022-12-17T16:02:23.434Z,100512.59
2022-12-17T16:04:51.156Z,100515.63
2022-12-17T16:07:26.648Z,100520.09
2022-12-17T16:10:01.641Z,100520.50
2022-12-17T16:12:32.607Z,100522.19
2022-12-17T16:15:03.618Z,100527.12
2022-12-17T16:17:31.130Z,100521.72
2022-12-17T16:19:58.586Z,100529.19
2022-12-17T16:22:27.416Z,100544.16
2022-12-17T16:24:54.931Z,100550.56
2022-12-17T16:27:22.559Z,100556.03
2022-12-17T16:29:50.185Z,100561.31
2022-12-17T16:32:17.911Z,100576.13
2022-12-17T16:34:45.331Z,100575.56
2022-12-17T16:37:12.959Z,100579.50
2022-12-17T16:39:40.345Z,100595.84
2022-12-17T16:42:11.461Z,100595.56
2022-12-17T16:44:39.085Z,100590.00
2022-12-17T16:47:06.560Z,100591.34
2022-12-17T16:49:34.146Z,100601.81
2022-12-17T16:52:03.359Z,100608.91
2022-12-17T16:54:32.475Z,100617.75
2022-12-17T16:57:02.809Z,100627.41
2022-12-17T16:59:30.830Z,100625.72
2022-12-17T17:01:58.302Z,100632.56
2022-12-17T17:04:28.813Z,100639.16
2022-12-17T17:06:57.184Z,100642.44
2022-12-17T17:09:25.303Z,100653.81
2022-12-17T17:11:55.338Z,100646.81
2022-12-17T17:14:24.030Z,100651.59
2022-12-17T17:16:52.037Z,100653.81
2022-12-17T17:19:19.688Z,100653.34
2022-12-17T17:21:53.954Z,100647.63
2022-12-17T17:24:25.390Z,100655.97
2022-12-17T17:26:54.322Z,100663.66
2022-12-17T17:29:22.387Z,100665.09
2022-12-17T17:34:38.202Z,100691.19
2022-12-17T17:37:05.711Z,100685.00
2022-12-17T17:39:34.241Z,100686.84
2022-12-17T17:42:02.024Z,100703.91
2022-12-17T17:44:29.391Z,100710.78
2022-12-17T17:46:56.848Z,100702.34
2022-12-17T17:49:24.528Z,100700.78
2022-12-17T17:52:09.065Z,100704.72
2022-12-17T17:54:39.473Z,100707.69
2022-12-17T17:57:08.283Z,100711.78
2022-12-17T17:59:35.655Z,100713.22
2022-12-17T18:02:03.616Z,100717.41
2022-12-17T18:04:31.878Z,100726.62
2022-12-17T18:09:46.810Z,100737.75
2022-12-17T18:12:32.786Z,100745.94
2022-12-17T18:15:17.792Z,100742.63
2022-12-17T18:17:49.579Z,100759.34
2022-12-17T18:20:17.398Z,100760.16
2022-12-17T18:22:46.349Z,100763.00
2022-12-17T18:25:15.658Z,100776.94
2022-12-17T18:27:43.871Z,100770.50
2022-12-17T18:30:12.023Z,100791.09
2022-12-17T18:32:39.470Z,100784.16
2022-12-17T18:35:07.580Z,100780.38
2022-12-17T18:37:34.875Z,100777.62
2022-12-17T18:40:02.577Z,100784.91
2022-12-17T18:42:48.902Z,100789.41
2022-12-17T18:45:16.651Z,100802.69
2022-12-17T18:47:44.746Z,100811.53
2022-12-17T18:50:13.026Z,100817.28
2022-12-17T18:52:41.604Z,100821.03
2022-12-17T18:55:09.232Z,100826.47
2022-12-17T18:57:36.577Z,100842.72
2022-12-17T19:00:04.804Z,100833.16
2022-12-17T19:02:32.504Z,100838.94
2022-12-17T19:04:59.883Z,100843.94
2022-12-17T19:07:27.264Z,100846.72
2022-12-17T19:09:54.840Z,100851.81
2022-12-17T19:12:22.158Z,100857.69
2022-12-17T19:14:49.524Z,100859.63
2022-12-17T19:17:17.190Z,100870.22
2022-12-17T19:19:44.518Z,100876.41
2022-12-17T19:22:11.839Z,100880.25
2022-12-17T19:24:39.434Z,100882.06
2022-12-17T19:27:06.766Z,100889.78
2022-12-17T19:29:34.781Z,100887.84
2022-12-17T19:32:02.522Z,100880.09
2022-12-17T19:34:29.941Z,100884.16
2022-12-17T19:36:57.283Z,100884.19
2022-12-17T19:39:24.936Z,100888.34
2022-12-17T19:41:52.411Z,100898.91
2022-12-17T19:44:20.905Z,100901.47
2022-12-17T19:46:48.506Z,100910.28
2022-12-17T19:49:16.526Z,100915.06
2022-12-17T19:51:44.773Z,100921.69
2022-12-17T19:54:14.739Z,100923.34
2022-12-17T19:56:43.647Z,100924.97
2022-12-17T19:59:11.691Z,100926.16
2022-12-17T20:01:41.658Z,100927.28
2022-12-17T20:04:14.180Z,100937.34
2022-12-17T20:06:42.459Z,100934.72
2022-12-17T20:09:10.401Z,100949.47
2022-12-17T20:11:37.877Z,100954.84
2022-12-17T20:14:13.107Z,100951.19
2022-12-17T20:16:43.620Z,100955.50
2022-12-17T20:19:13.683Z,100960.25
2022-12-17T20:21:41.503Z,100964.56
2022-12-17T20:24:09.698Z,100970.09
2022-12-17T20:26:37.171Z,100971.78
2022-12-17T20:29:05.757Z,100972.59
2022-12-17T20:31:33.587Z,100985.75
2022-12-17T20:34:03.421Z,100984.34
2022-12-17T20:36:31.072Z,100992.53
2022-12-17T20:38:58.856Z,100999.94
2022-12-17T20:41:28.255Z,101007.84
2022-12-17T20:43:56.546Z,100999.56
2022-12-17T20:46:24.924Z,101007.03
2022-12-17T20:48:52.822Z,101012.56
2022-12-17T20:51:23.680Z,101020.06
2022-12-17T20:53:52.457Z,101029.94
2022-12-17T20:56:26.624Z,101024.28
2022-12-17T20:59:02.510Z,101033.69
2022-12-17T21:01:32.526Z,101030.69
2022-12-17T21:04:00.999Z,101033.19
2022-12-17T21:06:39.391Z,101044.91
2022-12-17T21:09:07.471Z,101038.56
2022-12-17T21:11:36.699Z,101045.00
2022-12-17T21:14:09.781Z,101055.66
2022-12-17T21:16:38.443Z,101054.37
2022-12-17T21:19:07.228Z,101059.31
2022-12-17T21:21:37.315Z,101059.03
2022-12-17T21:24:05.777Z,101063.56
2022-12-17T21:26:36.222Z,101072.41
2022-12-17T21:29:05.854Z,101074.72
2022-12-17T21:31:37.514Z,101076.28
2022-12-17T21:34:06.443Z,101075.22
2022-12-17T21:36:34.624Z,101076.09
2022-12-17T21:39:08.714Z,101070.78
2022-12-17T21:41:44.631Z,101075.84
2022-12-17T21:44:13.358Z,101097.81
2022-12-17T21:46:42.553Z,101096.56
2022-12-17T21:49:10.700Z,101096.34
2022-12-17T21:51:38.242Z,101097.53
2022-12-17T21:54:08.394Z,101103.41
2022-12-17T21:56:36.539Z,101102.94
2022-12-17T21:59:03.965Z,101100.47
2022-12-17T22:01:33.722Z,101107.22
2022-12-17T22:04:02.867Z,101108.41
2022-12-17T22:06:36.369Z,101120.28
2022-12-17T22:09:29.815Z,101118.91
2022-12-17T22:12:24.498Z,101125.31
2022-12-17T22:14:52.267Z,101135.41
2022-12-17T22:17:20.124Z,101130.16
2022-12-17T22:19:47.570Z,101134.59
2022-12-17T22:22:15.203Z,101135.84
2022-12-17T22:24:42.599Z,101139.34
2022-12-17T22:27:10.006Z,101127.69
2022-12-17T22:29:56.205Z,101134.47
2022-12-17T22:32:42.295Z,101136.53
2022-12-17T22:36:22.048Z,101141.66
2022-12-17T22:41:06.144Z,101142.28
2022-12-17T22:44:31.889Z,101154.66
2022-12-17T22:44:41.330Z,101149.16
2022-12-17T22:46:22.839Z,101162.28
2022-12-17T22:48:50.222Z,101168.38
2022-12-17T22:51:25.325Z,101166.13
2022-12-17T22:54:09.482Z,101157.66
2022-12-17T22:56:55.277Z,101163.94
2022-12-17T22:59:26.042Z,101163.84
2022-12-17T23:01:53.597Z,101177.81
2022-12-17T23:04:21.026Z,101181.25
2022-12-17T23:06:48.741Z,101185.78
2022-12-17T23:09:21.082Z,101193.03
2022-12-17T23:11:49.497Z,101197.50
2022-12-17T23:14:17.509Z,101194.31
2022-12-17T23:16:45.010Z,101200.91
2022-12-17T23:19:12.913Z,101203.28
2022-12-17T23:21:40.207Z,101208.28
2022-12-17T23:24:07.971Z,101209.84
2022-12-17T23:26:36.612Z,101212.63
2022-12-17T23:29:07.782Z,101218.72
2022-12-17T23:31:38.696Z,101226.09
2022-12-17T23:34:06.524Z,101231.53
2022-12-17T23:36:34.164Z,101232.53
2022-12-17T23:39:01.572Z,101240.53
2022-12-17T23:41:30.326Z,101241.66
2022-12-17T23:43:58.461Z,101249.78
2022-12-17T23:46:27.713Z,101251.91
2022-12-17T23:48:55.712Z,101261.19
2022-12-17T23:51:23.898Z,101264.72
2022-12-17T23:53:51.261Z,101270.72
2022-12-17T23:56:24.415Z,101264.59
2022-12-17T23:58:53.917Z,101270.13
